createdAt,value
2023-01-19T00:01:53.640Z,90.83
2023-01-19T00:04:27.989Z,90.70
2023-01-19T00:06:59.548Z,90.34
2023-01-19T00:09:33.589Z,90.45
2023-01-19T00:12:01.991Z,90.78
2023-01-19T00:14:32.793Z,90.80
2023-01-19T00:17:04.519Z,90.82
2023-01-19T00:19:35.322Z,91.19
2023-01-19T00:22:06.214Z,91.14
2023-01-19T00:24:36.714Z,91.04
2023-01-19T00:27:09.233Z,91.18
2023-01-19T00:29:42.604Z,91.26
2023-01-19T00:32:13.645Z,91.25
2023-01-19T00:34:49.701Z,91.29
2023-01-19T00:37:20.634Z,91.59
2023-01-19T00:39:49.090Z,91.81
2023-01-19T00:42:35.959Z,91.71
2023-01-19T00:45:04.673Z,91.99
2023-01-19T00:47:33.633Z,92.08
2023-01-19T00:50:02.438Z,92.25
2023-01-19T00:52:30.970Z,92.40
2023-01-19T00:54:59.588Z,92.39
2023-01-19T00:57:31.971Z,92.59
2023-01-19T01:00:00.613Z,92.64
2023-01-19T01:02:29.662Z,92.45
2023-01-19T01:04:58.375Z,92.59
2023-01-19T01:07:26.811Z,92.53
2023-01-19T01:09:56.913Z,92.72
2023-01-19T01:12:28.900Z,92.98
2023-01-19T01:14:57.483Z,93.06
2023-01-19T01:17:26.068Z,93.27
2023-01-19T01:19:54.374Z,93.12
2023-01-19T01:22:22.685Z,93.32
2023-01-19T01:24:51.300Z,93.34
2023-01-19T01:27:19.720Z,93.76
2023-01-19T01:29:48.526Z,94.25
2023-01-19T01:32:17.001Z,94.20
2023-01-19T01:34:45.350Z,94.00
2023-01-19T01:37:13.584Z,93.75
2023-01-19T01:39:41.961Z,93.71
2023-01-19T01:42:17.882Z,93.57
2023-01-19T01:44:56.337Z,93.49
2023-01-19T01:47:28.224Z,93.75
2023-01-19T01:50:15.621Z,93.81
2023-01-19T01:53:07.573Z,93.73
2023-01-19T01:55:41.440Z,93.33
2023-01-19T01:58:11.601Z,93.08
2023-01-19T02:01:01.245Z,93.16
2023-01-19T02:03:29.748Z,93.10
2023-01-19T02:06:02.045Z,92.95
2023-01-19T02:09:07.069Z,92.85
2023-01-19T02:11:55.032Z,92.97
2023-01-19T02:14:23.513Z,93.16
2023-01-19T02:16:51.950Z,92.99
2023-01-19T02:19:37.865Z,93.01
2023-01-19T02:22:22.233Z,93.15
2023-01-19T02:24:50.379Z,93.43
2023-01-19T02:27:19.424Z,93.35
2023-01-19T02:29:48.002Z,93.51
2023-01-19T02:32:16.275Z,93.38
2023-01-19T02:34:44.592Z,93.26
2023-01-19T02:37:17.624Z,93.30
2023-01-19T02:39:56.606Z,93.75
2023-01-19T02:42:30.368Z,94.11
2023-01-19T02:44:58.899Z,94.50
2023-01-19T02:47:27.369Z,94.57
2023-01-19T02:49:58.006Z,94.62
2023-01-19T02:52:27.525Z,94.71
2023-01-19T02:55:20.283Z,95.22
2023-01-19T02:57:51.318Z,94.74
2023-01-19T03:00:33.215Z,94.70
2023-01-19T03:03:12.108Z,94.80
2023-01-19T03:05:56.947Z,94.66
2023-01-19T03:08:42.918Z,94.56
2023-01-19T03:11:13.581Z,94.63
2023-01-19T03:13:47.713Z,94.88
2023-01-19T03:16:28.255Z,95.34
2023-01-19T03:19:04.351Z,95.45
2023-01-19T03:21:36.312Z,95.21
2023-01-19T03:24:07.845Z,95.08
2023-01-19T03:26:44.754Z,95.15
2023-01-19T03:29:15.191Z,95.38
2023-01-19T03:31:47.518Z,95.49
2023-01-19T03:34:17.934Z,95.81
2023-01-19T03:36:54.299Z,95.81
2023-01-19T03:39:25.236Z,95.84
2023-01-19T03:41:59.271Z,95.84
2023-01-19T03:44:30.075Z,95.69
2023-01-19T03:47:00.407Z,95.85
2023-01-19T03:49:34.932Z,95.80
2023-01-19T03:52:03.189Z,95.69
2023-01-19T03:54:32.295Z,96.01
2023-01-19T03:57:00.987Z,96.19
2023-01-19T03:59:29.466Z,96.09
2023-01-19T04:01:58.042Z,96.15
2023-01-19T04:04:26.530Z,96.09
2023-01-19T04:06:54.914Z,96.62
2023-01-19T04:09:26.571Z,97.45
2023-01-19T04:11:56.104Z,97.70
2023-01-19T04:14:24.522Z,97.66
2023-01-19T04:16:52.967Z,97.78
2023-01-19T04:19:21.297Z,97.81
2023-01-19T04:21:50.951Z,97.66
2023-01-19T04:24:19.234Z,97.56
2023-01-19T04:26:47.586Z,97.23
2023-01-19T04:29:16.023Z,97.00
2023-01-19T04:31:44.368Z,96.86
2023-01-19T04:34:12.733Z,96.65
2023-01-19T04:36:41.016Z,96.71
2023-01-19T04:39:09.386Z,96.99
2023-01-19T04:41:37.653Z,97.35
2023-01-19T04:44:06.286Z,97.86
2023-01-19T04:46:35.207Z,97.73
2023-01-19T04:49:08.224Z,97.72
2023-01-19T04:51:37.325Z,97.49
2023-01-19T04:54:09.050Z,97.42
2023-01-19T04:56:37.659Z,97.45
2023-01-19T04:59:06.122Z,97.47
2023-01-19T05:01:34.609Z,97.43
2023-01-19T05:04:05.334Z,97.27
2023-01-19T05:06:37.971Z,97.17
2023-01-19T05:09:17.033Z,97.68
2023-01-19T05:11:56.954Z,98.18
2023-01-19T05:14:36.085Z,99.02
2023-01-19T05:17:04.748Z,99.23
2023-01-19T05:19:33.220Z,99.27
2023-01-19T05:22:04.069Z,99.15
2023-01-19T05:24:32.962Z,99.04
2023-01-19T05:27:02.079Z,98.83
2023-01-19T05:29:30.589Z,98.75
2023-01-19T05:31:58.990Z,98.50
2023-01-19T05:34:27.312Z,98.65
2023-01-19T05:36:55.535Z,98.50
2023-01-19T05:39:23.861Z,98.28
2023-01-19T05:41:52.066Z,98.05
2023-01-19T05:44:20.203Z,97.94
2023-01-19T05:46:48.490Z,97.85
2023-01-19T05:49:18.636Z,97.89
2023-01-19T05:51:54.467Z,98.02
2023-01-19T05:54:22.985Z,98.01
2023-01-19T05:56:51.366Z,98.17
2023-01-19T05:59:24.272Z,98.02
2023-01-19T06:01:54.218Z,97.91
2023-01-19T06:04:33.703Z,97.74
2023-01-19T06:07:02.604Z,97.80
2023-01-19T06:09:31.329Z,97.94
2023-01-19T06:12:03.757Z,97.97
2023-01-19T06:14:32.734Z,97.92
2023-01-19T06:17:03.593Z,97.78
2023-01-19T06:19:32.239Z,97.70
2023-01-19T06:22:01.625Z,97.66
2023-01-19T06:24:30.829Z,97.56
2023-01-19T06:27:01.299Z,97.49
2023-01-19T06:29:30.029Z,97.33
2023-01-19T06:31:58.294Z,97.24
2023-01-19T06:34:29.058Z,97.10
2023-01-19T06:37:02.540Z,97.09
2023-01-19T06:42:45.080Z,97.25
2023-01-19T06:45:13.419Z,97.52
2023-01-19T06:47:41.669Z,97.71
2023-01-19T06:50:10.388Z,97.91
2023-01-19T06:52:42.639Z,97.94
2023-01-19T06:55:12.345Z,97.84
2023-01-19T06:57:40.621Z,97.67
2023-01-19T07:00:09.726Z,97.62
2023-01-19T07:02:44.462Z,97.88
2023-01-19T07:05:14.581Z,98.16
2023-01-19T07:07:45.149Z,97.91
2023-01-19T07:10:15.839Z,97.74
2023-01-19T07:12:47.694Z,97.67
2023-01-19T07:15:17.874Z,97.47
2023-01-19T07:17:46.784Z,97.38
2023-01-19T07:20:15.159Z,97.25
2023-01-19T07:22:46.735Z,97.15
2023-01-19T07:25:17.208Z,97.23
2023-01-19T07:27:45.624Z,97.25
2023-01-19T07:30:16.187Z,97.26
2023-01-19T07:32:44.821Z,97.23
2023-01-19T07:35:13.453Z,97.20
2023-01-19T07:37:41.826Z,97.28
2023-01-19T07:40:16.392Z,97.45
2023-01-19T07:42:48.887Z,97.54
2023-01-19T07:45:17.723Z,97.54
2023-01-19T07:47:49.058Z,97.42
2023-01-19T07:50:21.472Z,97.36
2023-01-19T07:52:57.606Z,97.34
2023-01-19T07:55:25.815Z,97.30
2023-01-19T07:57:54.097Z,97.43
2023-01-19T08:00:24.857Z,97.36
2023-01-19T08:02:53.966Z,97.14
2023-01-19T08:05:22.435Z,96.84
2023-01-19T08:07:53.239Z,96.49
2023-01-19T08:10:25.856Z,96.20
2023-01-19T08:12:55.587Z,95.75
2023-01-19T08:15:31.094Z,95.51
2023-01-19T08:18:01.714Z,95.32
2023-01-19T08:20:30.105Z,95.07
2023-01-19T08:23:03.102Z,94.91
2023-01-19T08:25:41.028Z,94.81
2023-01-19T08:28:10.518Z,94.60
2023-01-19T08:30:39.076Z,94.59
2023-01-19T08:33:10.732Z,94.74
2023-01-19T08:35:43.675Z,94.58
2023-01-19T08:38:13.045Z,94.53
2023-01-19T08:40:42.162Z,94.59
2023-01-19T08:43:15.992Z,94.50
2023-01-19T08:45:48.822Z,94.29
2023-01-19T08:48:38.158Z,94.14
2023-01-19T08:51:22.983Z,93.79
2023-01-19T08:53:51.372Z,93.81
2023-01-19T08:56:20.766Z,93.78
2023-01-19T08:58:59.474Z,93.40
2023-01-19T09:01:37.519Z,93.36
2023-01-19T09:04:06.376Z,93.28
2023-01-19T09:06:34.909Z,92.97
2023-01-19T09:09:03.453Z,92.91
2023-01-19T09:11:40.904Z,92.43
2023-01-19T09:14:09.299Z,91.25
2023-01-19T09:16:37.685Z,90.82
2023-01-19T09:19:11.315Z,86.92
2023-01-19T09:21:39.887Z,85.57
2023-01-19T09:24:09.069Z,85.22
2023-01-19T09:26:37.338Z,85.49
2023-01-19T09:29:05.571Z,84.77
2023-01-19T09:31:33.955Z,81.53
2023-01-19T09:34:02.664Z,80.36
2023-01-19T09:36:31.128Z,79.13
2023-01-19T09:39:00.168Z,77.51
2023-01-19T09:44:35.606Z,78.48
2023-01-19T09:47:14.737Z,79.32
2023-01-19T09:49:58.956Z,79.16
2023-01-19T09:52:29.857Z,79.72
2023-01-19T09:54:59.342Z,78.40
2023-01-19T09:57:36.068Z,78.61
2023-01-19T10:00:24.297Z,80.00
2023-01-19T10:03:05.265Z,79.02
2023-01-19T10:05:47.412Z,77.00
2023-01-19T10:08:34.323Z,77.23
2023-01-19T10:11:03.319Z,76.63
2023-01-19T10:13:39.279Z,76.91
2023-01-19T10:16:49.369Z,76.10
2023-01-19T10:19:38.648Z,76.19
2023-01-19T10:22:28.570Z,76.43
2023-01-19T10:25:00.531Z,76.90
2023-01-19T10:27:31.845Z,77.14
2023-01-19T10:30:33.572Z,76.63
2023-01-19T10:33:02.249Z,76.97
2023-01-19T10:35:30.940Z,76.37
2023-01-19T10:38:02.439Z,75.52
2023-01-19T10:40:37.546Z,75.56
2023-01-19T10:43:44.438Z,74.42
2023-01-19T10:46:39.043Z,74.88
2023-01-19T10:49:31.290Z,73.99
2023-01-19T10:52:01.110Z,72.98
2023-01-19T10:54:32.043Z,72.00
2023-01-19T10:57:46.356Z,70.11
2023-01-19T11:00:39.979Z,70.70
2023-01-19T11:03:33.153Z,70.42
2023-01-19T11:06:15.370Z,70.30
2023-01-19T11:08:46.236Z,70.13
2023-01-19T11:11:15.149Z,70.71
2023-01-19T11:13:44.387Z,71.50
2023-01-19T11:16:34.906Z,71.59
2023-01-19T11:19:05.889Z,71.15
2023-01-19T11:21:34.547Z,70.69
2023-01-19T11:24:09.619Z,71.33
2023-01-19T11:26:50.984Z,71.28
2023-01-19T11:29:32.956Z,71.49
2023-01-19T11:32:28.594Z,71.38
2023-01-19T11:34:57.192Z,71.43
2023-01-19T11:37:30.053Z,71.32
2023-01-19T11:40:06.156Z,70.45
2023-01-19T11:42:36.741Z,65.63
2023-01-19T11:45:14.931Z,64.35
2023-01-19T11:47:46.077Z,65.16
2023-01-19T11:50:36.029Z,66.30
2023-01-19T11:53:28.324Z,63.59
2023-01-19T11:56:01.653Z,62.44
2023-01-19T11:58:33.650Z,60.96
2023-01-19T12:01:24.889Z,58.64
2023-01-19T12:04:01.600Z,57.24
2023-01-19T12:06:33.896Z,56.89
2023-01-19T12:09:12.508Z,56.67
2023-01-19T12:11:44.907Z,56.36
2023-01-19T12:14:58.097Z,56.36
2023-01-19T12:17:27.844Z,56.65
2023-01-19T12:20:20.185Z,56.68
2023-01-19T12:22:59.826Z,57.26
2023-01-19T12:25:58.173Z,56.70
2023-01-19T12:28:31.851Z,57.07
2023-01-19T12:31:01.861Z,57.23
2023-01-19T12:33:40.811Z,57.36
2023-01-19T12:36:09.219Z,57.51
2023-01-19T12:38:56.352Z,57.12
2023-01-19T12:41:38.008Z,57.33
2023-01-19T12:44:14.065Z,57.09
2023-01-19T12:47:20.526Z,55.87
2023-01-19T12:49:57.186Z,55.82
2023-01-19T12:52:31.012Z,54.92
2023-01-19T12:55:14.722Z,54.36
2023-01-19T12:58:21.914Z,53.82
2023-01-19T13:01:21.408Z,53.55
2023-01-19T13:04:01.579Z,53.43
2023-01-19T13:07:10.712Z,53.84
2023-01-19T13:09:43.437Z,53.91
2023-01-19T13:12:14.851Z,54.24
2023-01-19T13:14:43.796Z,54.73
2023-01-19T13:17:33.678Z,54.91
2023-01-19T13:20:17.457Z,54.63
2023-01-19T13:23:11.926Z,55.09
2023-01-19T13:25:42.232Z,55.39
2023-01-19T13:28:16.683Z,55.16
2023-01-19T13:30:57.219Z,55.24
2023-01-19T13:33:28.730Z,55.56
2023-01-19T13:35:59.098Z,55.56
2023-01-19T13:38:29.527Z,55.53
2023-01-19T13:41:02.359Z,55.46
2023-01-19T13:43:38.132Z,55.56
2023-01-19T13:46:13.730Z,55.72
2023-01-19T13:48:55.515Z,56.24
2023-01-19T13:51:23.998Z,56.54
2023-01-19T13:54:00.078Z,55.88
2023-01-19T13:56:33.521Z,55.93
2023-01-19T13:59:10.084Z,56.04
2023-01-19T14:01:41.405Z,56.32
2023-01-19T14:04:29.468Z,55.92
2023-01-19T14:07:03.621Z,55.36
2023-01-19T14:09:32.460Z,55.44
2023-01-19T14:12:16.067Z,55.47
2023-01-19T14:18:35.470Z,55.16
2023-01-19T14:21:08.129Z,55.63
2023-01-19T14:24:08.180Z,55.69
2023-01-19T14:27:06.625Z,55.94
2023-01-19T14:29:36.302Z,56.14
2023-01-19T14:32:04.800Z,55.90
2023-01-19T14:34:56.385Z,55.96
2023-01-19T14:37:33.137Z,56.00
2023-01-19T14:40:04.979Z,56.09
2023-01-19T14:42:54.849Z,56.23
2023-01-19T14:45:38.552Z,56.60
2023-01-19T14:48:19.442Z,56.85
2023-01-19T14:51:02.534Z,56.88
2023-01-19T14:53:37.346Z,56.86
2023-01-19T14:56:07.720Z,56.68
2023-01-19T14:58:36.788Z,56.95
2023-01-19T15:01:31.307Z,56.89
2023-01-19T15:03:59.774Z,56.88
2023-01-19T15:06:31.683Z,56.89
2023-01-19T15:09:00.123Z,56.96
2023-01-19T15:11:34.499Z,56.92
2023-01-19T15:14:03.164Z,56.89
2023-01-19T15:16:34.534Z,56.89
2023-01-19T15:19:02.860Z,57.18
2023-01-19T15:21:31.056Z,57.19
2023-01-19T15:24:02.241Z,57.31
2023-01-19T15:26:30.736Z,57.20
2023-01-19T15:28:59.838Z,57.41
2023-01-19T15:31:28.143Z,57.44
2023-01-19T15:33:59.697Z,57.49
2023-01-19T15:36:28.679Z,57.76
2023-01-19T15:38:57.448Z,57.93
2023-01-19T15:41:28.019Z,57.94
2023-01-19T15:43:56.392Z,57.76
2023-01-19T15:46:25.933Z,58.06
2023-01-19T15:48:54.931Z,58.05
2023-01-19T15:51:27.925Z,57.93
2023-01-19T15:53:56.759Z,57.93
2023-01-19T15:56:27.561Z,58.03
2023-01-19T15:58:56.671Z,58.35
2023-01-19T16:01:35.241Z,58.19
2023-01-19T16:04:06.388Z,58.32
2023-01-19T16:06:34.743Z,58.03
2023-01-19T16:09:03.994Z,58.11
2023-01-19T16:11:34.442Z,58.33
2023-01-19T16:14:02.890Z,58.47
2023-01-19T16:16:31.486Z,59.42
2023-01-19T16:18:59.957Z,61.00
2023-01-19T16:21:28.583Z,61.63
2023-01-19T16:23:57.037Z,61.87
2023-01-19T16:26:30.022Z,62.13
2023-01-19T16:29:09.896Z,62.56
2023-01-19T16:31:40.056Z,63.58
2023-01-19T16:34:09.748Z,64.21
2023-01-19T16:36:40.473Z,64.74
2023-01-19T16:39:28.923Z,65.64
2023-01-19T16:41:58.477Z,66.36
2023-01-19T16:44:27.733Z,67.28
2023-01-19T16:46:56.278Z,67.77
2023-01-19T16:49:28.466Z,68.66
2023-01-19T16:51:59.589Z,69.74
2023-01-19T16:55:09.628Z,70.79
2023-01-19T16:57:41.327Z,71.86
2023-01-19T17:00:10.965Z,72.86
2023-01-19T17:02:39.743Z,73.43
2023-01-19T17:05:08.743Z,73.44
2023-01-19T17:07:37.356Z,73.88
2023-01-19T17:10:06.433Z,73.60
2023-01-19T17:12:34.986Z,73.70
2023-01-19T17:15:03.603Z,74.04
2023-01-19T17:17:31.891Z,74.27
2023-01-19T17:20:00.401Z,74.82
2023-01-19T17:22:28.748Z,74.79
2023-01-19T17:24:56.986Z,74.85
2023-01-19T17:27:25.359Z,75.33
2023-01-19T17:29:53.827Z,75.56
2023-01-19T17:32:22.231Z,76.62
2023-01-19T17:34:51.097Z,76.53
2023-01-19T17:37:19.708Z,76.58
2023-01-19T17:39:48.586Z,77.27
2023-01-19T17:42:17.016Z,77.60
2023-01-19T17:44:45.268Z,77.68
2023-01-19T17:47:13.780Z,77.78
2023-01-19T17:49:42.192Z,78.42
2023-01-19T17:52:10.601Z,78.79
2023-01-19T17:54:38.903Z,79.10
2023-01-19T17:57:07.590Z,78.98
2023-01-19T17:59:37.873Z,78.87
2023-01-19T18:02:06.386Z,79.07
2023-01-19T18:04:38.319Z,79.20
2023-01-19T18:07:07.299Z,79.34
2023-01-19T18:09:35.699Z,79.86
2023-01-19T18:12:04.730Z,80.34
2023-01-19T18:14:34.999Z,80.24
2023-01-19T18:17:04.003Z,80.79
2023-01-19T18:19:32.653Z,81.11
2023-01-19T18:22:00.970Z,81.74
2023-01-19T18:24:29.488Z,81.60
2023-01-19T18:26:58.630Z,82.69
2023-01-19T18:29:27.005Z,83.66
2023-01-19T18:31:56.111Z,85.04
2023-01-19T18:34:27.776Z,85.05
2023-01-19T18:36:56.081Z,84.44
2023-01-19T18:39:24.450Z,84.13
2023-01-19T18:41:52.758Z,83.70
2023-01-19T18:44:22.578Z,83.39
2023-01-19T18:46:50.822Z,83.31
2023-01-19T18:49:19.141Z,83.22
2023-01-19T18:52:07.405Z,83.14
2023-01-19T18:54:35.732Z,83.16
2023-01-19T18:57:04.168Z,83.42
2023-01-19T18:59:32.560Z,84.24
2023-01-19T19:02:01.751Z,84.44
2023-01-19T19:04:30.103Z,84.54
2023-01-19T19:06:58.356Z,85.31
2023-01-19T19:09:26.701Z,85.51
2023-01-19T19:11:54.855Z,85.33
2023-01-19T19:14:22.995Z,85.06
2023-01-19T19:16:51.351Z,84.64
2023-01-19T19:19:20.032Z,84.44
2023-01-19T19:21:49.071Z,84.23
2023-01-19T19:24:17.310Z,84.24
2023-01-19T19:26:45.631Z,84.57
2023-01-19T19:29:13.996Z,84.29
2023-01-19T19:31:42.399Z,84.08
2023-01-19T19:34:12.478Z,84.04
2023-01-19T19:36:42.668Z,83.86
2023-01-19T19:39:10.995Z,84.40
2023-01-19T19:41:39.263Z,84.66
2023-01-19T19:44:09.961Z,84.58
2023-01-19T19:46:38.809Z,84.07
2023-01-19T19:49:10.135Z,83.86
2023-01-19T19:51:38.522Z,83.71
2023-01-19T19:54:06.925Z,83.91
2023-01-19T19:56:35.948Z,84.25
2023-01-19T19:59:04.268Z,84.11
2023-01-19T20:01:33.980Z,83.98
2023-01-19T20:04:07.442Z,84.11
2023-01-19T20:06:39.055Z,84.07
2023-01-19T20:09:10.486Z,84.16
2023-01-19T20:11:39.347Z,83.96
2023-01-19T20:14:10.116Z,83.67
2023-01-19T20:16:39.057Z,83.42
2023-01-19T20:19:07.921Z,83.38
2023-01-19T20:21:38.455Z,83.41
2023-01-19T20:24:19.427Z,83.44
2023-01-19T20:26:51.813Z,83.29
2023-01-19T20:29:23.242Z,83.28
2023-01-19T20:31:55.021Z,83.53
2023-01-19T20:34:26.965Z,83.32
2023-01-19T20:36:55.920Z,83.53
2023-01-19T20:39:25.261Z,83.78
2023-01-19T20:41:53.720Z,84.38
2023-01-19T20:44:24.432Z,84.93
2023-01-19T20:46:54.213Z,84.77
2023-01-19T20:49:22.816Z,84.51
2023-01-19T20:51:52.234Z,84.41
2023-01-19T20:54:24.580Z,84.70
2023-01-19T20:56:53.539Z,84.65
2023-01-19T20:59:22.086Z,84.63
2023-01-19T21:01:50.577Z,84.73
2023-01-19T21:04:19.097Z,84.64
2023-01-19T21:06:47.345Z,84.59
2023-01-19T21:09:15.864Z,84.46
2023-01-19T21:11:44.215Z,84.52
2023-01-19T21:14:12.454Z,84.75
2023-01-19T21:16:42.650Z,84.78
2023-01-19T21:19:11.991Z,85.39
2023-01-19T21:21:40.251Z,85.38
2023-01-19T21:24:10.853Z,85.33
2023-01-19T21:26:39.525Z,85.59
2023-01-19T21:29:13.292Z,85.45
2023-01-19T21:31:42.411Z,85.15
2023-01-19T21:34:10.941Z,85.09
2023-01-19T21:36:41.802Z,85.05
2023-01-19T21:39:10.012Z,85.02
2023-01-19T21:41:40.033Z,85.07
2023-01-19T21:44:08.605Z,85.14
2023-01-19T21:46:37.039Z,85.25
2023-01-19T21:49:07.787Z,85.37
2023-01-19T21:51:36.868Z,85.77
2023-01-19T21:54:06.889Z,86.22
2023-01-19T21:56:38.162Z,86.55
2023-01-19T21:59:06.561Z,86.25
2023-01-19T22:01:35.274Z,86.54
2023-01-19T22:04:03.787Z,86.62
2023-01-19T22:06:32.072Z,86.39
2023-01-19T22:09:00.932Z,86.24
2023-01-19T22:11:30.347Z,86.00
2023-01-19T22:13:59.840Z,86.40
2023-01-19T22:16:29.549Z,85.89
2023-01-19T22:19:01.294Z,85.95
2023-01-19T22:21:35.693Z,86.11
2023-01-19T22:24:05.194Z,85.95
2023-01-19T22:26:34.531Z,85.71
2023-01-19T22:29:06.579Z,85.68
2023-01-19T22:31:35.204Z,85.62
2023-01-19T22:34:04.291Z,85.63
2023-01-19T22:36:36.333Z,85.61
2023-01-19T22:39:07.238Z,85.66
2023-01-19T22:41:37.068Z,85.61
2023-01-19T22:44:07.787Z,85.41
2023-01-19T22:46:37.564Z,85.38
2023-01-19T22:49:07.718Z,85.44
2023-01-19T22:51:36.689Z,85.56
2023-01-19T22:54:05.553Z,85.76
2023-01-19T22:56:35.934Z,85.90
2023-01-19T22:59:05.098Z,85.93
2023-01-19T23:01:37.208Z,86.20
2023-01-19T23:04:06.754Z,86.49
2023-01-19T23:06:37.358Z,86.76
2023-01-19T23:09:08.566Z,86.79
2023-01-19T23:11:39.450Z,87.14
2023-01-19T23:14:11.569Z,87.58
2023-01-19T23:16:39.734Z,88.00
2023-01-19T23:19:08.100Z,88.28
2023-01-19T23:21:36.993Z,88.49
2023-01-19T23:24:05.397Z,88.51
2023-01-19T23:26:39.569Z,88.34
2023-01-19T23:29:11.999Z,88.15
2023-01-19T23:31:44.299Z,88.15
2023-01-19T23:34:13.752Z,88.75
2023-01-19T23:36:43.198Z,88.54
2023-01-19T23:39:20.666Z,88.25
2023-01-19T23:41:49.761Z,88.13
2023-01-19T23:44:18.502Z,88.12
2023-01-19T23:46:46.883Z,88.01
2023-01-19T23:49:15.276Z,88.01
2023-01-19T23:51:43.415Z,87.86
2023-01-19T23:54:12.422Z,87.73
2023-01-19T23:56:42.660Z,87.65
2023-01-19T23:59:14.244Z,87.45
